Time;durP1;ratioP1;P1;durP2;ratioP2;P2;SDS_P1;SDS_P2;PMS_P1;PMS_P2;Temp;Humidity;BMP_temperature;BMP_pressure;BME280_temperature;BME280_humidity;BME280_pressure;Samples;Min_cycle;Max_cycle;Signal;HPM_P1;HPM_P2
2023/06/07 00:00:41;;;;;;;;;;;20.30;61.00;;;;;;6292276;28;19919;-71
2023/06/07 00:03:42;;;;;;;;;;;20.30;61.00;;;;;;6292738;28;19931;-70
2023/06/07 00:06:43;;;;;;;;;;;20.30;61.00;;;;;;6292732;28;19916;-71
2023/06/07 00:09:44;;;;;;;;;;;20.30;61.10;;;;;;6293087;28;20066;-71
2023/06/07 00:12:45;;;;;;;;;;;20.30;61.00;;;;;;6293278;28;19916;-70
2023/06/07 00:15:45;;;;;;;;;;;20.20;61.00;;;;;;6292885;28;19913;-70
2023/06/07 00:18:46;;;;;;;;;;;20.30;61.00;;;;;;6292749;28;20011;-71
2023/06/07 00:21:48;;;;;;;;;;;20.20;60.90;;;;;;6292474;28;20402;-71
2023/06/07 00:24:52;;;;;;;;;;;20.20;61.00;;;;;;6292469;28;19961;-70
2023/06/07 00:27:53;;;;;;;;;;;20.20;61.00;;;;;;6267801;28;19971;-71
2023/06/07 00:30:53;;;;;;;;;;;20.20;61.00;;;;;;6275294;28;19912;-71
2023/06/07 00:33:54;;;;;;;;;;;20.30;61.00;;;;;;6292779;28;20100;-71
2023/06/07 00:36:54;;;;;;;;;;;20.20;60.90;;;;;;6292126;28;19957;-70
2023/06/07 00:39:55;;;;;;;;;;;20.20;60.90;;;;;;6292842;28;20007;-71
2023/06/07 00:42:55;;;;;;;;;;;20.30;61.10;;;;;;6291638;28;19912;-71
2023/06/07 00:45:56;;;;;;;;;;;20.30;61.10;;;;;;6292679;28;19958;-70
2023/06/07 00:48:57;;;;;;;;;;;20.20;60.90;;;;;;6291821;28;19913;-71
2023/06/07 00:51:57;;;;;;;;;;;20.30;61.10;;;;;;6292070;28;20448;-71
2023/06/07 00:55:01;;;;;;;;;;;20.30;61.10;;;;;;6292291;28;19912;-70
2023/06/07 00:58:01;;;;;;;;;;;20.30;61.10;;;;;;6292332;28;20113;-70
2023/06/07 01:01:02;;;;;;;;;;;20.20;61.00;;;;;;6292146;28;19973;-71
2023/06/07 01:04:05;;;;;;;;;;;20.30;61.10;;;;;;6291780;28;19916;-70
2023/06/07 01:07:07;;;;;;;;;;;20.30;61.00;;;;;;6295698;28;19917;-71
2023/06/07 01:10:08;;;;;;;;;;;20.30;61.10;;;;;;6296453;28;19908;-71
2023/06/07 01:13:09;;;;;;;;;;;20.20;61.00;;;;;;6296374;28;19912;-70
2023/06/07 01:16:11;;;;;;;;;;;20.20;60.90;;;;;;6296469;28;19915;-70
2023/06/07 01:19:21;;;;;;;;;;;20.30;61.10;;;;;;6296993;28;19912;-70
2023/06/07 01:22:27;;;;;;;;;;;20.20;61.00;;;;;;6296019;28;19915;-70
2023/06/07 01:25:28;;;;;;;;;;;20.20;61.00;;;;;;6296235;28;19936;-70
2023/06/07 01:28:30;;;;;;;;;;;20.30;61.10;;;;;;6296228;28;19912;-70
2023/06/07 01:31:35;;;;;;;;;;;20.20;61.00;;;;;;6296038;28;19912;-70
2023/06/07 01:34:36;;;;;;;;;;;20.30;61.10;;;;;;6296295;28;20004;-70
2023/06/07 01:37:36;;;;;;;;;;;20.30;61.10;;;;;;6295801;28;19915;-70
2023/06/07 01:40:38;;;;;;;;;;;20.30;61.10;;;;;;6296072;28;19908;-70
2023/06/07 01:43:39;;;;;;;;;;;20.30;61.10;;;;;;6295186;28;20364;-71
2023/06/07 01:46:40;;;;;;;;;;;20.20;61.00;;;;;;6295827;28;19935;-71
2023/06/07 01:49:41;;;;;;;;;;;20.20;61.00;;;;;;6295498;28;19912;-70
2023/06/07 01:52:42;;;;;;;;;;;20.30;61.10;;;;;;6295227;28;19913;-70
2023/06/07 01:55:43;;;;;;;;;;;20.30;61.10;;;;;;6295378;28;19920;-70
2023/06/07 01:58:52;;;;;;;;;;;20.20;61.00;;;;;;6295590;28;19909;-70
2023/06/07 02:02:07;;;;;;;;;;;20.20;61.00;;;;;;6295083;28;20397;-70
2023/06/07 02:05:11;;;;;;;;;;;20.20;61.00;;;;;;6295421;28;19966;-71
2023/06/07 02:08:16;;;;;;;;;;;20.30;61.10;;;;;;6295172;28;20266;-71
2023/06/07 02:11:17;;;;;;;;;;;20.30;61.10;;;;;;6295349;28;19909;-70
2023/06/07 02:14:20;;;;;;;;;;;20.30;61.10;;;;;;6294848;28;19909;-70
2023/06/07 02:17:21;;;;;;;;;;;20.30;61.10;;;;;;6293769;28;20024;-70
2023/06/07 02:20:21;;;;;;;;;;;20.30;61.10;;;;;;6295129;28;19908;-70
2023/06/07 02:23:22;;;;;;;;;;;20.20;61.00;;;;;;6294286;28;20153;-70
2023/06/07 02:26:24;;;;;;;;;;;20.30;61.10;;;;;;6294959;28;20367;-70
2023/06/07 02:29:24;;;;;;;;;;;20.30;61.10;;;;;;6294354;28;20335;-71
2023/06/07 02:32:26;;;;;;;;;;;20.30;61.10;;;;;;6294583;28;19962;-70
2023/06/07 02:35:26;;;;;;;;;;;20.20;61.00;;;;;;6294661;28;19908;-71
2023/06/07 02:38:27;;;;;;;;;;;20.20;61.00;;;;;;6294768;28;20005;-70
2023/06/07 02:41:27;;;;;;;;;;;20.30;61.10;;;;;;6294126;28;20438;-71
2023/06/07 02:44:28;;;;;;;;;;;20.20;61.00;;;;;;6294086;28;19915;-70
2023/06/07 02:47:29;;;;;;;;;;;20.20;61.00;;;;;;6294369;28;19939;-70
2023/06/07 02:50:30;;;;;;;;;;;20.20;61.00;;;;;;6294157;28;19948;-70
2023/06/07 02:53:30;;;;;;;;;;;20.30;61.10;;;;;;6293913;28;19918;-71
2023/06/07 02:56:32;;;;;;;;;;;20.20;61.00;;;;;;6294283;28;20305;-70
2023/06/07 02:59:33;;;;;;;;;;;20.20;61.00;;;;;;6293959;28;19977;-70
2023/06/07 03:02:33;;;;;;;;;;;20.30;61.10;;;;;;6293384;28;19912;-70
2023/06/07 03:05:34;;;;;;;;;;;20.30;61.10;;;;;;6293784;28;20442;-71
2023/06/07 03:08:34;;;;;;;;;;;20.20;61.00;;;;;;6293711;28;19920;-71
2023/06/07 03:11:35;;;;;;;;;;;20.30;61.10;;;;;;6293636;28;19919;-70
2023/06/07 03:14:35;;;;;;;;;;;20.30;61.10;;;;;;6293607;28;19916;-70
2023/06/07 03:17:37;;;;;;;;;;;20.30;61.10;;;;;;6293438;28;19914;-70
2023/06/07 03:20:37;;;;;;;;;;;20.30;61.10;;;;;;6293826;28;19909;-70
2023/06/07 03:23:38;;;;;;;;;;;20.20;61.00;;;;;;6292692;28;20346;-70
2023/06/07 03:26:38;;;;;;;;;;;20.30;61.10;;;;;;6293597;28;19923;-71
2023/06/07 03:29:39;;;;;;;;;;;20.20;61.00;;;;;;6292922;28;19966;-70
2023/06/07 03:32:40;;;;;;;;;;;20.30;61.10;;;;;;6293616;28;19909;-70
2023/06/07 03:35:41;;;;;;;;;;;20.20;61.00;;;;;;6293114;28;19913;-71
2023/06/07 03:38:42;;;;;;;;;;;20.20;61.10;;;;;;6293202;28;19999;-71
2023/06/07 03:41:42;;;;;;;;;;;20.30;61.10;;;;;;6292996;28;19908;-71
2023/06/07 03:44:43;;;;;;;;;;;20.30;61.10;;;;;;6292773;28;20252;-70
2023/06/07 03:47:43;;;;;;;;;;;20.20;61.00;;;;;;6293677;28;19983;-71
2023/06/07 03:50:44;;;;;;;;;;;20.20;61.00;;;;;;6292883;28;19947;-71
2023/06/07 03:53:44;;;;;;;;;;;20.30;61.10;;;;;;6292498;28;19924;-71
2023/06/07 03:56:45;;;;;;;;;;;20.30;61.10;;;;;;6293152;28;19912;-70
2023/06/07 04:03:25;;;;;;;;;;;20.20;61.00;;;;;;6292307;28;20371;-71
2023/06/07 04:06:25;;;;;;;;;;;20.20;61.00;;;;;;6292246;28;20027;-70
2023/06/07 04:09:26;;;;;;;;;;;20.30;61.10;;;;;;6292241;28;20383;-70
2023/06/07 04:12:26;;;;;;;;;;;20.30;61.10;;;;;;6293125;28;19909;-70
2023/06/07 04:15:27;;;;;;;;;;;20.30;61.10;;;;;;6292350;28;19909;-70
2023/06/07 04:18:27;;;;;;;;;;;20.30;61.10;;;;;;6292445;28;20306;-71
2023/06/07 04:21:28;;;;;;;;;;;20.30;61.10;;;;;;6292898;28;20021;-71
2023/06/07 04:24:28;;;;;;;;;;;20.20;61.10;;;;;;6292074;28;19909;-71
2023/06/07 04:27:29;;;;;;;;;;;20.20;61.10;;;;;;6292971;28;19913;-71
2023/06/07 04:30:36;;;;;;;;;;;20.30;61.10;;;;;;6292557;28;19958;-71
2023/06/07 04:33:37;;;;;;;;;;;20.30;61.10;;;;;;6292314;28;19995;-70
2023/06/07 04:36:39;;;;;;;;;;;20.30;61.10;;;;;;6292512;28;19924;-71
2023/06/07 04:39:40;;;;;;;;;;;20.30;61.10;;;;;;6292605;28;19944;-70
2023/06/07 04:42:46;;;;;;;;;;;20.30;61.10;;;;;;6297125;28;20362;-70
2023/06/07 04:45:53;;;;;;;;;;;20.30;61.10;;;;;;6296825;28;19912;-71
2023/06/07 04:48:55;;;;;;;;;;;20.20;61.00;;;;;;6297077;28;19916;-71
2023/06/07 04:51:56;;;;;;;;;;;20.30;61.10;;;;;;6297384;28;19921;-71
2023/06/07 04:54:58;;;;;;;;;;;20.20;61.00;;;;;;6297018;28;19909;-71
2023/06/07 04:57:59;;;;;;;;;;;20.30;61.10;;;;;;6297035;28;20378;-70
2023/06/07 05:01:00;;;;;;;;;;;20.30;61.10;;;;;;6294412;28;20381;-70
2023/06/07 05:04:02;;;;;;;;;;;20.30;61.10;;;;;;6272009;28;20151;-70
2023/06/07 05:07:02;;;;;;;;;;;20.30;61.10;;;;;;6293279;28;20154;-70
2023/06/07 05:10:03;;;;;;;;;;;20.20;61.00;;;;;;6296517;28;19966;-70
2023/06/07 05:13:04;;;;;;;;;;;20.30;61.10;;;;;;6296971;28;19916;-71
2023/06/07 05:16:04;;;;;;;;;;;20.30;61.10;;;;;;6296793;28;19912;-70
2023/06/07 05:19:05;;;;;;;;;;;20.30;61.20;;;;;;6296145;28;19978;-71
2023/06/07 05:22:07;;;;;;;;;;;20.20;61.00;;;;;;6296007;28;20374;-71
2023/06/07 05:25:08;;;;;;;;;;;20.30;61.10;;;;;;6295994;28;21099;-70
2023/06/07 05:28:09;;;;;;;;;;;20.30;61.10;;;;;;6296021;28;19943;-70
2023/06/07 05:31:11;;;;;;;;;;;20.20;61.00;;;;;;6282037;28;20034;-71
2023/06/07 05:34:12;;;;;;;;;;;20.30;61.20;;;;;;6294923;28;19912;-71
2023/06/07 05:37:13;;;;;;;;;;;20.30;61.10;;;;;;6294796;28;19928;-70
2023/06/07 05:40:17;;;;;;;;;;;20.20;61.00;;;;;;6300826;28;19916;-70
2023/06/07 05:43:18;;;;;;;;;;;20.30;61.10;;;;;;6294963;28;20437;-71
2023/06/07 05:46:18;;;;;;;;;;;20.30;61.10;;;;;;6294024;28;19914;-70
2023/06/07 05:49:19;;;;;;;;;;;20.30;61.10;;;;;;6294394;28;20118;-71
2023/06/07 05:52:19;;;;;;;;;;;20.20;61.10;;;;;;6294118;28;19919;-70
2023/06/07 05:55:20;;;;;;;;;;;20.30;61.20;;;;;;6294334;28;19908;-70
2023/06/07 05:58:21;;;;;;;;;;;20.30;61.20;;;;;;6286163;28;19912;-70
2023/06/07 06:01:21;;;;;;;;;;;20.30;61.20;;;;;;6294785;28;19924;-70
2023/06/07 06:04:22;;;;;;;;;;;20.30;61.10;;;;;;6291746;28;19969;-71
2023/06/07 06:07:23;;;;;;;;;;;20.30;61.20;;;;;;6313251;28;20428;-70
2023/06/07 06:10:24;;;;;;;;;;;20.30;61.10;;;;;;6321338;28;19954;-71
2023/06/07 06:13:24;;;;;;;;;;;20.30;61.20;;;;;;6318688;28;19919;-70
2023/06/07 06:16:25;;;;;;;;;;;20.20;61.10;;;;;;6293027;28;20375;-70
2023/06/07 06:19:25;;;;;;;;;;;20.30;61.10;;;;;;6321325;28;19912;-71
2023/06/07 06:22:26;;;;;;;;;;;20.30;61.20;;;;;;6303712;28;19908;-70
2023/06/07 06:25:27;;;;;;;;;;;20.30;61.10;;;;;;6280295;28;19913;-70
2023/06/07 06:28:28;;;;;;;;;;;20.30;61.10;;;;;;6312694;28;20070;-71
2023/06/07 06:31:28;;;;;;;;;;;20.30;61.10;;;;;;6305217;28;19913;-70
2023/06/07 06:34:30;;;;;;;;;;;20.30;61.30;;;;;;6297360;28;19908;-70
2023/06/07 06:37:30;;;;;;;;;;;20.30;61.20;;;;;;6300275;28;19909;-71
2023/06/07 06:40:30;;;;;;;;;;;20.40;61.10;;;;;;6307105;28;19908;-70
2023/06/07 06:43:31;;;;;;;;;;;20.30;61.00;;;;;;6301654;28;19908;-71
2023/06/07 06:46:31;;;;;;;;;;;20.40;61.00;;;;;;6295475;28;20405;-70
2023/06/07 06:49:32;;;;;;;;;;;20.40;61.00;;;;;;6322389;28;19965;-71
2023/06/07 06:52:33;;;;;;;;;;;20.40;61.00;;;;;;6311182;28;20302;-70
2023/06/07 06:55:33;;;;;;;;;;;20.40;61.00;;;;;;6296979;28;19912;-70
2023/06/07 06:58:34;;;;;;;;;;;20.40;61.00;;;;;;6310958;28;19908;-71
2023/06/07 07:01:47;;;;;;;;;;;20.50;61.10;;;;;;6319783;28;20006;-70
2023/06/07 07:04:48;;;;;;;;;;;20.50;61.00;;;;;;6270670;28;19958;-71
2023/06/07 07:07:49;;;;;;;;;;;20.50;61.00;;;;;;6287664;28;19923;-70
2023/06/07 07:10:50;;;;;;;;;;;20.40;59.10;;;;;;6303267;28;19920;-70
2023/06/07 07:13:50;;;;;;;;;;;20.50;58.20;;;;;;6312558;28;19970;-71
2023/06/07 07:16:52;;;;;;;;;;;20.50;57.50;;;;;;6317824;28;20351;-70
2023/06/07 07:19:53;;;;;;;;;;;20.60;57.00;;;;;;6295095;28;19913;-71
2023/06/07 07:22:55;;;;;;;;;;;20.80;56.60;;;;;;6299998;28;20422;-71
2023/06/07 07:25:55;;;;;;;;;;;20.80;56.20;;;;;;6300680;28;19923;-70
2023/06/07 07:28:56;;;;;;;;;;;20.90;56.00;;;;;;6310184;28;20362;-71
2023/06/07 07:31:56;;;;;;;;;;;21.00;56.50;;;;;;6320746;28;20381;-70
2023/06/07 07:34:57;;;;;;;;;;;21.10;55.40;;;;;;6296013;28;19912;-70
2023/06/07 07:38:01;;;;;;;;;;;21.10;55.20;;;;;;6300243;28;19915;-71
2023/06/07 07:41:01;;;;;;;;;;;21.20;55.10;;;;;;6321460;28;19915;-71
2023/06/07 07:44:02;;;;;;;;;;;21.20;54.90;;;;;;6304183;28;19908;-70
2023/06/07 07:47:05;;;;;;;;;;;21.20;54.80;;;;;;6296258;28;20000;-71
2023/06/07 07:50:07;;;;;;;;;;;21.20;54.60;;;;;;6312009;28;19951;-71
2023/06/07 07:53:07;;;;;;;;;;;21.30;54.70;;;;;;6313321;28;19948;-70
2023/06/07 07:56:08;;;;;;;;;;;21.30;54.50;;;;;;6295396;28;19965;-70
2023/06/07 07:59:08;;;;;;;;;;;21.30;54.30;;;;;;6303699;28;20077;-71
2023/06/07 08:02:09;;;;;;;;;;;21.30;54.40;;;;;;6320662;28;19962;-71
2023/06/07 08:05:10;;;;;;;;;;;21.30;54.20;;;;;;6297197;28;19916;-71
2023/06/07 08:08:11;;;;;;;;;;;21.30;54.20;;;;;;6293814;28;20360;-70
2023/06/07 08:11:12;;;;;;;;;;;21.30;54.20;;;;;;6310417;28;19916;-71
2023/06/07 08:14:13;;;;;;;;;;;21.30;54.00;;;;;;6299912;28;20440;-71
2023/06/07 08:17:13;;;;;;;;;;;21.30;53.90;;;;;;6300116;28;19961;-71
2023/06/07 08:20:14;;;;;;;;;;;21.30;53.90;;;;;;6300386;28;19955;-71
2023/06/07 08:23:14;;;;;;;;;;;21.30;53.90;;;;;;6297573;28;19912;-70
2023/06/07 08:26:18;;;;;;;;;;;21.30;53.80;;;;;;6325702;28;19990;-71
2023/06/07 08:29:18;;;;;;;;;;;21.30;53.60;;;;;;6312773;28;19964;-70
2023/06/07 08:32:19;;;;;;;;;;;21.40;53.70;;;;;;6300296;28;20034;-70
2023/06/07 08:35:20;;;;;;;;;;;21.30;53.60;;;;;;6313759;28;20305;-70
2023/06/07 08:38:20;;;;;;;;;;;21.30;53.50;;;;;;6304763;28;19923;-71
2023/06/07 08:41:21;;;;;;;;;;;21.40;53.50;;;;;;6324898;28;20290;-70
2023/06/07 08:44:21;;;;;;;;;;;21.40;53.40;;;;;;6313804;28;19915;-70
2023/06/07 08:47:23;;;;;;;;;;;21.40;53.50;;;;;;6300113;28;19956;-70
2023/06/07 08:50:24;;;;;;;;;;;21.40;53.30;;;;;;6315236;28;19909;-71
2023/06/07 08:53:29;;;;;;;;;;;21.40;53.30;;;;;;6323554;28;19958;-70
2023/06/07 08:56:33;;;;;;;;;;;21.40;53.30;;;;;;6299492;28;19996;-70
2023/06/07 08:59:34;;;;;;;;;;;21.40;53.30;;;;;;6303451;28;19908;-70
2023/06/07 09:02:36;;;;;;;;;;;21.40;53.20;;;;;;6323473;28;19935;-71
2023/06/07 09:05:37;;;;;;;;;;;21.40;53.20;;;;;;6305246;28;19909;-71
2023/06/07 09:08:37;;;;;;;;;;;21.40;53.20;;;;;;6298419;28;20397;-70
2023/06/07 09:11:38;;;;;;;;;;;21.40;53.10;;;;;;6305759;28;19965;-70
2023/06/07 09:14:38;;;;;;;;;;;21.40;53.10;;;;;;6305143;28;19962;-70
2023/06/07 09:17:52;;;;;;;;;;;21.40;53.00;;;;;;6322671;28;19943;-70
2023/06/07 09:20:53;;;;;;;;;;;21.40;52.90;;;;;;6303914;28;19908;-71
2023/06/07 09:23:54;;;;;;;;;;;21.40;52.80;;;;;;6300242;28;19931;-70
2023/06/07 09:26:55;;;;;;;;;;;21.40;53.40;;;;;;6297289;28;19951;-70
2023/06/07 09:30:02;;;;;;;;;;;21.40;52.70;;;;;;6293298;28;20623;-71
2023/06/07 09:33:03;;;;;;;;;;;21.40;52.80;;;;;;6324309;28;19974;-71
2023/06/07 09:36:04;;;;;;;;;;;21.40;52.60;;;;;;6304592;28;19916;-71
2023/06/07 09:39:18;;;;;;;;;;;21.40;52.60;;;;;;6298791;28;19912;-70
2023/06/07 09:42:19;;;;;;;;;;;21.40;52.60;;;;;;6309131;28;19913;-70
2023/06/07 09:45:20;;;;;;;;;;;21.40;52.60;;;;;;6298654;28;20271;-70
2023/06/07 09:48:20;;;;;;;;;;;21.40;52.50;;;;;;6298726;28;20306;-70
2023/06/07 09:51:21;;;;;;;;;;;21.40;52.50;;;;;;6302239;28;19959;-70
2023/06/07 09:54:36;;;;;;;;;;;21.40;52.50;;;;;;6322697;28;20322;-70
2023/06/07 09:57:37;;;;;;;;;;;21.50;52.50;;;;;;6297810;28;19908;-71
2023/06/07 10:00:42;;;;;;;;;;;21.50;52.50;;;;;;6294557;28;19908;-70
2023/06/07 10:03:47;;;;;;;;;;;21.50;52.50;;;;;;6314882;28;19920;-70
2023/06/07 10:06:49;;;;;;;;;;;21.50;52.30;;;;;;6296777;28;19958;-71
2023/06/07 10:09:52;;;;;;;;;;;21.50;52.40;;;;;;6294633;28;19924;-70
2023/06/07 10:12:53;;;;;;;;;;;21.50;52.40;;;;;;6292743;28;20581;-71
2023/06/07 10:15:55;;;;;;;;;;;21.50;52.40;;;;;;6290773;28;19955;-70
2023/06/07 10:18:58;;;;;;;;;;;21.50;52.30;;;;;;6297279;28;20030;-70
2023/06/07 10:21:59;;;;;;;;;;;21.40;52.30;;;;;;6295757;28;20297;-70
2023/06/07 10:25:08;;;;;;;;;;;21.50;52.30;;;;;;6296693;28;19908;-70
2023/06/07 10:28:28;;;;;;;;;;;21.50;52.10;;;;;;6316080;28;19923;-71
2023/06/07 10:31:29;;;;;;;;;;;21.50;52.00;;;;;;6308342;28;19957;-70
2023/06/07 10:34:31;;;;;;;;;;;21.50;52.10;;;;;;6296478;28;19912;-70
2023/06/07 10:37:33;;;;;;;;;;;21.50;52.10;;;;;;6299818;28;20002;-70
2023/06/07 10:40:34;;;;;;;;;;;21.50;52.10;;;;;;6316791;28;19912;-70
2023/06/07 10:43:37;;;;;;;;;;;21.40;52.00;;;;;;6296383;28;20404;-70
2023/06/07 10:46:37;;;;;;;;;;;21.50;52.00;;;;;;6290286;28;19908;-71
2023/06/07 10:49:38;;;;;;;;;;;21.50;52.10;;;;;;6321743;28;19942;-70
2023/06/07 10:52:53;;;;;;;;;;;21.50;52.00;;;;;;6300422;28;19948;-71
2023/06/07 10:55:54;;;;;;;;;;;21.50;51.90;;;;;;6290550;28;19913;-70
2023/06/07 10:58:56;;;;;;;;;;;21.50;51.90;;;;;;6290834;28;19969;-71
2023/06/07 11:02:15;;;;;;;;;;;21.50;51.90;;;;;;6297682;28;19913;-71
2023/06/07 11:05:16;;;;;;;;;;;21.50;51.80;;;;;;6295878;28;20015;-70
2023/06/07 11:08:30;;;;;;;;;;;21.50;51.80;;;;;;6301657;28;19923;-71
2023/06/07 11:11:51;;;;;;;;;;;21.50;51.80;;;;;;6308011;28;19908;-71
2023/06/07 11:15:10;;;;;;;;;;;21.50;51.90;;;;;;6315101;28;19919;-70
2023/06/07 11:18:11;;;;;;;;;;;21.50;51.80;;;;;;6298822;28;20007;-71
2023/06/07 11:21:11;;;;;;;;;;;21.50;51.70;;;;;;6315269;28;19932;-70
2023/06/07 11:24:12;;;;;;;;;;;21.50;51.70;;;;;;6293440;28;19908;-70
2023/06/07 11:27:18;;;;;;;;;;;21.50;51.70;;;;;;6295323;28;20317;-70
2023/06/07 11:30:19;;;;;;;;;;;21.50;51.70;;;;;;6270999;28;20398;-70
2023/06/07 11:33:22;;;;;;;;;;;21.50;51.70;;;;;;6299415;28;19936;-71
2023/06/07 11:36:23;;;;;;;;;;;21.50;51.70;;;;;;6316185;28;19912;-71
2023/06/07 11:39:31;;;;;;;;;;;21.50;51.70;;;;;;6311765;28;19916;-70
2023/06/07 11:42:32;;;;;;;;;;;21.50;51.70;;;;;;6307848;28;19912;-71
2023/06/07 11:45:33;;;;;;;;;;;21.50;51.60;;;;;;6294636;28;19916;-70
2023/06/07 11:48:34;;;;;;;;;;;21.50;51.40;;;;;;6291006;28;19920;-70
2023/06/07 11:51:38;;;;;;;;;;;21.50;51.50;;;;;;6317089;28;19961;-70
2023/06/07 11:54:42;;;;;;;;;;;21.50;51.50;;;;;;6294887;28;20000;-70
2023/06/07 11:57:43;;;;;;;;;;;21.50;51.50;;;;;;6282804;28;19909;-71
2023/06/07 12:00:44;;;;;;;;;;;21.50;51.50;;;;;;6270471;28;19908;-70
2023/06/07 12:03:45;;;;;;;;;;;21.50;51.40;;;;;;6297643;28;19927;-71
2023/06/07 12:06:48;;;;;;;;;;;21.50;51.30;;;;;;6316665;28;19919;-71
2023/06/07 12:09:49;;;;;;;;;;;21.50;51.30;;;;;;6295106;28;20363;-71
2023/06/07 12:13:05;;;;;;;;;;;21.50;51.30;;;;;;6294726;28;19913;-70
2023/06/07 12:16:07;;;;;;;;;;;21.60;51.40;;;;;;6319872;28;20333;-71
2023/06/07 12:19:08;;;;;;;;;;;21.50;51.20;;;;;;6307258;28;20357;-70
2023/06/07 12:22:09;;;;;;;;;;;21.50;51.20;;;;;;6316403;28;19909;-71
2023/06/07 12:25:10;;;;;;;;;;;21.50;51.30;;;;;;6293866;28;19908;-70
2023/06/07 12:28:12;;;;;;;;;;;21.50;51.20;;;;;;6282844;28;20356;-70
2023/06/07 12:31:16;;;;;;;;;;;21.50;51.20;;;;;;6293524;28;19930;-70
2023/06/07 12:34:17;;;;;;;;;;;21.50;51.20;;;;;;6288069;28;20665;-71
2023/06/07 12:37:18;;;;;;;;;;;21.50;51.20;;;;;;6308148;28;19939;-70
2023/06/07 12:40:18;;;;;;;;;;;21.60;51.20;;;;;;6309394;28;19959;-70
2023/06/07 12:43:19;;;;;;;;;;;21.60;51.10;;;;;;6308856;28;19908;-71
2023/06/07 12:46:19;;;;;;;;;;;21.50;51.10;;;;;;6293611;28;19915;-71
2023/06/07 12:49:20;;;;;;;;;;;21.60;51.20;;;;;;6296632;28;20294;-71
2023/06/07 12:52:20;;;;;;;;;;;21.50;50.90;;;;;;6303310;28;19924;-70
2023/06/07 12:55:21;;;;;;;;;;;21.50;51.10;;;;;;6292669;28;19912;-70
2023/06/07 12:58:22;;;;;;;;;;;21.50;51.00;;;;;;6285379;28;19908;-70
2023/06/07 13:01:22;;;;;;;;;;;21.50;51.00;;;;;;6313025;28;19908;-70
2023/06/07 13:04:23;;;;;;;;;;;21.60;51.10;;;;;;6305204;28;19927;-71
2023/06/07 13:07:24;;;;;;;;;;;21.50;51.00;;;;;;6298709;28;20417;-71
2023/06/07 13:10:25;;;;;;;;;;;21.50;51.10;;;;;;6289282;28;19917;-71
2023/06/07 13:13:26;;;;;;;;;;;21.50;51.00;;;;;;6282957;28;20455;-71
2023/06/07 13:16:27;;;;;;;;;;;21.50;50.90;;;;;;6317857;28;19908;-71
2023/06/07 13:19:28;;;;;;;;;;;21.50;51.00;;;;;;6307613;28;20303;-70
2023/06/07 13:22:28;;;;;;;;;;;21.50;51.00;;;;;;6298261;28;19912;-70
2023/06/07 13:25:29;;;;;;;;;;;21.50;51.00;;;;;;6316363;28;20071;-71
2023/06/07 13:28:29;;;;;;;;;;;21.50;51.00;;;;;;6298470;28;20407;-71
2023/06/07 13:31:30;;;;;;;;;;;21.50;50.90;;;;;;6299500;28;19916;-70
2023/06/07 13:34:30;;;;;;;;;;;21.50;50.80;;;;;;6295559;28;20003;-70
2023/06/07 13:37:31;;;;;;;;;;;21.50;50.80;;;;;;6295255;28;19909;-71
2023/06/07 13:40:31;;;;;;;;;;;21.60;50.80;;;;;;6294826;28;20005;-71
2023/06/07 13:43:32;;;;;;;;;;;21.60;50.70;;;;;;6296130;28;19951;-71
2023/06/07 13:46:32;;;;;;;;;;;21.60;50.70;;;;;;6294337;28;19915;-70
2023/06/07 13:49:33;;;;;;;;;;;21.60;50.70;;;;;;6295815;28;19916;-71
2023/06/07 13:52:34;;;;;;;;;;;21.60;50.70;;;;;;6295546;28;19958;-71
2023/06/07 13:55:34;;;;;;;;;;;21.60;50.60;;;;;;6295061;28;19909;-70
2023/06/07 13:58:36;;;;;;;;;;;21.60;50.70;;;;;;6295183;28;20359;-71
2023/06/07 14:01:37;;;;;;;;;;;21.60;50.70;;;;;;6295978;28;19999;-71
2023/06/07 14:04:38;;;;;;;;;;;21.60;50.70;;;;;;6297418;28;19990;-71
2023/06/07 14:07:38;;;;;;;;;;;21.60;50.70;;;;;;6317799;28;20007;-71
2023/06/07 14:10:39;;;;;;;;;;;21.60;50.60;;;;;;6289102;28;19916;-71
2023/06/07 14:13:42;;;;;;;;;;;21.60;50.60;;;;;;6296312;28;19909;-71
2023/06/07 14:16:42;;;;;;;;;;;21.60;50.70;;;;;;6299165;28;19912;-71
2023/06/07 14:19:43;;;;;;;;;;;21.60;50.60;;;;;;6297461;28;19931;-71
2023/06/07 14:22:43;;;;;;;;;;;21.60;50.60;;;;;;6297864;28;19908;-71
2023/06/07 14:25:44;;;;;;;;;;;21.60;50.40;;;;;;6280750;28;19909;-71
2023/06/07 14:28:45;;;;;;;;;;;21.60;50.50;;;;;;6289855;28;19964;-71
2023/06/07 14:31:45;;;;;;;;;;;21.60;50.60;;;;;;6295458;28;19984;-70
2023/06/07 14:34:46;;;;;;;;;;;21.60;51.20;;;;;;6289900;28;19945;-70
2023/06/07 14:37:46;;;;;;;;;;;21.60;50.50;;;;;;6296187;28;19961;-71
2023/06/07 14:40:47;;;;;;;;;;;21.60;50.60;;;;;;6296377;28;19930;-71
2023/06/07 14:43:47;;;;;;;;;;;21.60;50.40;;;;;;6278322;28;19909;-71
2023/06/07 14:46:48;;;;;;;;;;;21.60;50.40;;;;;;6294879;28;19914;-71
2023/06/07 14:49:49;;;;;;;;;;;21.60;50.40;;;;;;6289825;28;19940;-70
2023/06/07 14:52:50;;;;;;;;;;;21.60;50.30;;;;;;6283996;28;19908;-70
2023/06/07 14:55:50;;;;;;;;;;;21.60;50.30;;;;;;6280194;28;19924;-70
2023/06/07 14:58:51;;;;;;;;;;;21.60;50.40;;;;;;6320908;28;20047;-71
2023/06/07 15:01:51;;;;;;;;;;;21.60;50.30;;;;;;6298712;28;19908;-70
2023/06/07 15:04:52;;;;;;;;;;;21.60;50.30;;;;;;6290994;28;20007;-71
2023/06/07 15:07:52;;;;;;;;;;;21.70;50.40;;;;;;6282337;28;19930;-71
2023/06/07 15:10:55;;;;;;;;;;;21.60;50.30;;;;;;6292950;28;21430;-70
2023/06/07 15:13:55;;;;;;;;;;;21.60;50.30;;;;;;6280388;28;19916;-71
2023/06/07 15:16:56;;;;;;;;;;;21.60;50.20;;;;;;6294561;28;19908;-71
2023/06/07 15:19:57;;;;;;;;;;;21.60;50.20;;;;;;6292648;28;19916;-71
2023/06/07 15:22:57;;;;;;;;;;;21.60;50.30;;;;;;6281327;28;19909;-71
2023/06/07 15:25:59;;;;;;;;;;;21.60;50.20;;;;;;6293460;28;19934;-71
2023/06/07 15:29:00;;;;;;;;;;;21.60;50.20;;;;;;6294740;28;19999;-71
2023/06/07 15:32:00;;;;;;;;;;;21.60;50.20;;;;;;6277314;28;20398;-70
2023/06/07 15:35:00;;;;;;;;;;;21.60;50.20;;;;;;6318638;28;19908;-70
2023/06/07 15:38:01;;;;;;;;;;;21.60;50.20;;;;;;6302777;28;20311;-71
2023/06/07 15:41:02;;;;;;;;;;;21.60;50.10;;;;;;6311316;28;19909;-71
2023/06/07 15:44:03;;;;;;;;;;;21.60;50.20;;;;;;6295121;28;19934;-70
2023/06/07 15:47:03;;;;;;;;;;;21.60;50.20;;;;;;6288366;28;19919;-70
2023/06/07 15:50:04;;;;;;;;;;;21.60;50.20;;;;;;6294746;28;19912;-71
2023/06/07 15:53:05;;;;;;;;;;;21.60;50.10;;;;;;6283386;28;19908;-71
2023/06/07 15:56:05;;;;;;;;;;;21.60;50.00;;;;;;6310621;28;19913;-71
2023/06/07 15:59:06;;;;;;;;;;;21.60;50.10;;;;;;6293604;28;19917;-71
2023/06/07 16:02:06;;;;;;;;;;;21.60;50.20;;;;;;6277760;28;19909;-70
2023/06/07 16:05:07;;;;;;;;;;;21.60;50.20;;;;;;6291031;28;20371;-70
2023/06/07 16:08:08;;;;;;;;;;;21.60;50.10;;;;;;6279603;28;20294;-70
2023/06/07 16:11:08;;;;;;;;;;;21.60;50.10;;;;;;6295031;28;19916;-70
2023/06/07 16:14:10;;;;;;;;;;;21.60;50.20;;;;;;6278718;28;19917;-71
2023/06/07 16:17:10;;;;;;;;;;;21.60;50.10;;;;;;6291044;28;20417;-70
2023/06/07 16:20:12;;;;;;;;;;;21.70;50.00;;;;;;6300622;28;19952;-70
2023/06/07 16:23:12;;;;;;;;;;;21.70;50.00;;;;;;6294086;28;19912;-70
2023/06/07 16:26:12;;;;;;;;;;;21.70;50.00;;;;;;6292133;28;20398;-70
2023/06/07 16:29:13;;;;;;;;;;;21.70;50.00;;;;;;6300596;28;19920;-70
2023/06/07 16:32:14;;;;;;;;;;;21.70;50.00;;;;;;6304025;28;19919;-70
2023/06/07 16:35:14;;;;;;;;;;;21.60;50.00;;;;;;6290813;28;19913;-71
2023/06/07 16:38:15;;;;;;;;;;;21.70;50.00;;;;;;6294736;28;19915;-70
2023/06/07 16:41:20;;;;;;;;;;;21.70;49.90;;;;;;6318649;28;19959;-70
2023/06/07 16:44:20;;;;;;;;;;;21.70;49.90;;;;;;6295213;28;19909;-70
2023/06/07 16:47:21;;;;;;;;;;;21.70;49.90;;;;;;6295728;28;20397;-70
2023/06/07 16:50:22;;;;;;;;;;;21.70;49.90;;;;;;6311877;28;19965;-70
2023/06/07 16:53:22;;;;;;;;;;;21.70;49.90;;;;;;6296958;28;20003;-71
2023/06/07 16:56:23;;;;;;;;;;;21.70;49.90;;;;;;6291755;28;19912;-70
2023/06/07 16:59:24;;;;;;;;;;;21.70;49.90;;;;;;6278330;28;19952;-70
2023/06/07 17:02:25;;;;;;;;;;;21.70;49.80;;;;;;6288872;28;19917;-71
2023/06/07 17:05:25;;;;;;;;;;;21.70;49.90;;;;;;6297365;28;19909;-71
2023/06/07 17:08:26;;;;;;;;;;;21.70;49.80;;;;;;6294062;28;19927;-70
2023/06/07 17:11:26;;;;;;;;;;;21.70;49.80;;;;;;6287507;28;19913;-71
2023/06/07 17:14:27;;;;;;;;;;;21.70;49.80;;;;;;6300440;28;20007;-71
2023/06/07 17:17:27;;;;;;;;;;;21.70;49.80;;;;;;6306788;28;19915;-70
2023/06/07 17:20:28;;;;;;;;;;;21.70;49.70;;;;;;6297576;28;19938;-70
2023/06/07 17:23:28;;;;;;;;;;;21.70;49.50;;;;;;6294766;28;19913;-71
2023/06/07 17:26:29;;;;;;;;;;;21.70;49.70;;;;;;6293737;28;19915;-71
2023/06/07 17:29:29;;;;;;;;;;;21.70;49.70;;;;;;6276645;28;19921;-71
2023/06/07 17:32:30;;;;;;;;;;;21.70;49.70;;;;;;6313921;28;19955;-71
2023/06/07 17:35:30;;;;;;;;;;;21.70;49.70;;;;;;6294116;28;19909;-71
2023/06/07 17:38:31;;;;;;;;;;;21.70;49.70;;;;;;6294407;28;19915;-71